Time;durP1;ratioP1;P1;durP2;ratioP2;P2;SDS_P1;SDS_P2;PMS_P1;PMS_P2;Temp;Humidity;BMP_temperature;BMP_pressure;BME280_temperature;BME280_humidity;BME280_pressure;Samples;Min_cycle;Max_cycle;Signal;HPM_P1;HPM_P2
2023/06/19 00:01:02;;;;;;;18.75;11.80;;;22.00;90.70;;;;;;5091613;28;20047;-69
2023/06/19 00:04:06;;;;;;;17.23;11.32;;;21.90;90.70;;;;;;5090251;28;20043;-68
2023/06/19 00:07:10;;;;;;;19.33;10.55;;;22.00;90.60;;;;;;5091197;28;20043;-69
2023/06/19 00:10:13;;;;;;;18.02;11.15;;;22.00;90.50;;;;;;5091031;28;20054;-69
2023/06/19 00:13:18;;;;;;;17.70;11.05;;;22.00;90.50;;;;;;5090351;28;20043;-69
2023/06/19 00:16:24;;;;;;;18.35;11.30;;;22.00;90.50;;;;;;5090851;28;20178;-69
2023/06/19 00:19:28;;;;;;;18.20;11.73;;;21.90;90.70;;;;;;5091271;28;20066;-69
2023/06/19 00:22:32;;;;;;;18.92;12.02;;;21.90;90.80;;;;;;5091072;28;20036;-68
2023/06/19 00:25:36;;;;;;;20.80;11.38;;;21.90;90.80;;;;;;5091026;28;20047;-69
2023/06/19 00:28:41;;;;;;;20.48;11.30;;;22.00;90.60;;;;;;5091155;28;20043;-69
2023/06/19 00:31:45;;;;;;;21.67;12.10;;;21.90;90.40;;;;;;5089876;28;20109;-69
2023/06/19 00:34:49;;;;;;;17.98;11.88;;;21.90;90.70;;;;;;5090666;28;20392;-69
2023/06/19 00:37:52;;;;;;;16.55;10.63;;;21.90;90.80;;;;;;5090773;28;20040;-68
2023/06/19 00:40:56;;;;;;;16.25;10.70;;;21.90;90.60;;;;;;5091180;28;20376;-68
2023/06/19 00:44:00;;;;;;;16.75;10.77;;;22.00;90.30;;;;;;5090093;28;20205;-68
2023/06/19 00:47:04;;;;;;;13.77;9.95;;;22.00;89.20;;;;;;5091010;28;20495;-69
2023/06/19 00:50:09;;;;;;;12.15;9.73;;;21.90;88.80;;;;;;5090623;28;20055;-69
2023/06/19 00:53:14;;;;;;;14.48;9.90;;;21.80;88.70;;;;;;5078512;28;20047;-69
2023/06/19 00:56:18;;;;;;;13.65;9.68;;;21.80;89.20;;;;;;5090801;28;20106;-69
2023/06/19 00:59:22;;;;;;;13.95;9.40;;;21.90;89.00;;;;;;5090396;28;20059;-69
2023/06/19 01:02:26;;;;;;;12.85;9.55;;;21.90;88.30;;;;;;5091059;28;20062;-69
2023/06/19 01:05:31;;;;;;;14.88;9.93;;;21.90;88.80;;;;;;5089839;28;20067;-69
2023/06/19 01:08:53;;;;;;;17.38;10.00;;;21.90;89.70;;;;;;5090374;28;20051;-69
2023/06/19 01:12:08;;;;;;;15.27;10.10;;;21.80;89.80;;;;;;5090759;28;20071;-69
2023/06/19 01:15:12;;;;;;;13.13;8.70;;;21.80;89.10;;;;;;5090526;28;20054;-69
2023/06/19 01:18:20;;;;;;;11.88;8.15;;;21.70;88.40;;;;;;5090556;28;20051;-69
2023/06/19 01:21:24;;;;;;;11.98;9.45;;;21.70;88.10;;;;;;5090491;28;20055;-69
2023/06/19 01:24:28;;;;;;;12.82;8.63;;;21.70;88.30;;;;;;5092208;28;20047;-69
2023/06/19 01:27:33;;;;;;;13.48;8.73;;;21.60;88.80;;;;;;5094446;28;20044;-69
2023/06/19 01:30:40;;;;;;;15.15;9.43;;;21.50;89.30;;;;;;5093117;28;20039;-69
2023/06/19 01:33:45;;;;;;;13.40;8.20;;;21.50;89.20;;;;;;5094094;28;20059;-69
2023/06/19 01:36:56;;;;;;;13.15;8.32;;;21.30;89.20;;;;;;5092967;28;20043;-69
2023/06/19 01:40:04;;;;;;;12.57;8.05;;;21.20;89.40;;;;;;5093458;28;20047;-69
2023/06/19 01:43:10;;;;;;;14.93;8.15;;;21.20;89.10;;;;;;5093971;28;20046;-69
2023/06/19 01:46:14;;;;;;;12.32;8.30;;;21.30;88.90;;;;;;5094076;28;20051;-69
2023/06/19 01:49:18;;;;;;;11.00;7.85;;;21.30;88.80;;;;;;5094029;28;20387;-69
2023/06/19 01:52:24;;;;;;;11.48;8.10;;;21.30;88.90;;;;;;5093235;28;20495;-69
2023/06/19 01:55:28;;;;;;;10.68;7.85;;;21.30;88.70;;;;;;5093454;28;20039;-69
2023/06/19 01:58:32;;;;;;;10.88;7.55;;;21.30;88.40;;;;;;5093300;28;20530;-69
2023/06/19 02:01:36;;;;;;;12.32;8.10;;;21.40;88.50;;;;;;5093013;28;20047;-69
2023/06/19 02:04:40;;;;;;;11.77;8.25;;;21.40;87.80;;;;;;5093463;28;20392;-69
2023/06/19 02:07:44;;;;;;;16.13;8.18;;;21.40;88.60;;;;;;5093319;28;20519;-68
2023/06/19 02:10:48;;;;;;;12.25;8.23;;;21.30;89.20;;;;;;5092382;28;20047;-69
2023/06/19 02:13:51;;;;;;;14.77;8.38;;;21.10;89.60;;;;;;5092427;28;20593;-69
2023/06/19 02:16:56;;;;;;;16.58;8.85;;;21.00;90.20;;;;;;5092222;28;20299;-69
2023/06/19 02:20:00;;;;;;;11.57;8.55;;;20.90;90.30;;;;;;5093528;28;20399;-69
2023/06/19 02:23:04;;;;;;;11.15;8.15;;;20.80;90.40;;;;;;5092124;28;20384;-69
2023/06/19 02:26:08;;;;;;;10.82;8.57;;;20.90;90.40;;;;;;5092345;28;20066;-69
2023/06/19 02:29:11;;;;;;;11.18;8.07;;;20.90;90.30;;;;;;5093297;28;20043;-69
2023/06/19 02:32:15;;;;;;;14.63;8.45;;;20.90;90.00;;;;;;5092088;28;20047;-69
2023/06/19 02:35:19;;;;;;;12.95;8.85;;;20.90;90.20;;;;;;5092053;28;20048;-69
2023/06/19 02:38:23;;;;;;;17.23;9.25;;;20.90;90.20;;;;;;5092842;28;20051;-69
2023/06/19 02:41:27;;;;;;;15.25;8.23;;;20.90;90.30;;;;;;5092018;28;20047;-68
2023/06/19 02:44:31;;;;;;;13.75;9.02;;;20.80;90.50;;;;;;5092551;28;20043;-69
2023/06/19 02:47:35;;;;;;;12.48;9.13;;;20.70;90.60;;;;;;5092023;28;20207;-69
2023/06/19 02:50:39;;;;;;;12.43;8.55;;;20.70;90.90;;;;;;5092445;28;20039;-69
2023/06/19 02:53:43;;;;;;;11.93;8.30;;;20.70;91.10;;;;;;5091698;28;20051;-68
2023/06/19 02:56:48;;;;;;;12.98;8.45;;;20.70;91.10;;;;;;5091736;28;20039;-69
2023/06/19 02:59:55;;;;;;;12.80;8.50;;;20.70;90.80;;;;;;5092581;28;20074;-69
2023/06/19 03:02:59;;;;;;;16.67;8.60;;;20.70;91.00;;;;;;5092719;28;20047;-69
2023/06/19 03:06:06;;;;;;;14.07;9.00;;;20.70;91.00;;;;;;5092276;28;20039;-69
2023/06/19 03:09:11;;;;;;;15.00;8.73;;;20.70;91.10;;;;;;5091257;28;20570;-69
2023/06/19 03:12:15;;;;;;;15.25;9.35;;;20.70;90.90;;;;;;5091968;28;20047;-69
2023/06/19 03:15:19;;;;;;;14.95;9.65;;;20.60;91.10;;;;;;5091846;28;20051;-69
2023/06/19 03:18:27;;;;;;;21.67;9.98;;;20.60;91.50;;;;;;5091376;28;20055;-69
2023/06/19 03:21:31;;;;;;;17.02;9.55;;;20.60;91.50;;;;;;5091912;28;20403;-69
2023/06/19 03:24:34;;;;;;;18.85;8.88;;;20.50;91.60;;;;;;5091743;28;20430;-69
2023/06/19 03:28:04;;;;;;;14.60;8.93;;;20.50;91.50;;;;;;5091998;28;20047;-69
2023/06/19 03:31:08;;;;;;;15.82;8.73;;;20.50;91.40;;;;;;5080153;28;20043;-69
2023/06/19 03:34:12;;;;;;;15.52;9.38;;;20.60;91.60;;;;;;5090934;28;20039;-69
2023/06/19 03:37:17;;;;;;;13.63;9.30;;;20.60;91.60;;;;;;5091141;28;20506;-69
2023/06/19 03:40:21;;;;;;;14.18;9.05;;;20.70;91.60;;;;;;5091569;28;20059;-69
2023/06/19 03:43:26;;;;;;;16.08;8.63;;;20.80;91.40;;;;;;5090716;28;20039;-69
2023/06/19 03:46:30;;;;;;;19.88;9.25;;;20.80;91.00;;;;;;5090904;28;20600;-69
2023/06/19 03:49:34;;;;;;;16.55;8.48;;;20.90;90.90;;;;;;5091051;28;20047;-69
2023/06/19 03:52:38;;;;;;;14.38;8.98;;;20.90;90.90;;;;;;5090469;28;20039;-69
2023/06/19 03:55:44;;;;;;;12.07;8.63;;;21.00;91.00;;;;;;5090513;28;20043;-69
2023/06/19 03:58:49;;;;;;;17.02;12.25;;;21.00;90.90;;;;;;5090269;28;20051;-69
2023/06/19 04:01:53;;;;;;;10.68;9.05;;;20.90;91.30;;;;;;5090418;28;20043;-69
2023/06/19 04:04:57;;;;;;;12.65;8.80;;;20.80;91.60;;;;;;5090248;28;20043;-69
2023/06/19 04:08:01;;;;;;;17.10;8.98;;;20.80;91.70;;;;;;5090981;28;20074;-69
2023/06/19 04:11:05;;;;;;;15.02;9.05;;;20.90;91.80;;;;;;5091091;28;20056;-69
2023/06/19 04:14:09;;;;;;;15.77;8.68;;;21.10;91.70;;;;;;5091142;28;20510;-69
2023/06/19 04:17:15;;;;;;;13.82;9.02;;;21.10;91.50;;;;;;5090477;28;20047;-69
2023/06/19 04:20:19;;;;;;;20.02;9.85;;;21.10;91.50;;;;;;5090407;28;20062;-68
2023/06/19 04:23:25;;;;;;;19.67;9.50;;;21.10;91.70;;;;;;5089950;28;20035;-69
2023/06/19 04:26:28;;;;;;;40.53;11.00;;;21.10;91.60;;;;;;5090353;28;20047;-69
2023/06/19 04:29:33;;;;;;;14.18;9.10;;;21.10;91.70;;;;;;5091256;28;20047;-69
2023/06/19 04:32:40;;;;;;;34.50;9.88;;;21.10;91.70;;;;;;5090704;28;20468;-68
2023/06/19 04:35:44;;;;;;;38.75;10.13;;;21.20;91.70;;;;;;5090771;28;20388;-68
2023/06/19 04:38:51;;;;;;;31.67;9.60;;;21.40;91.20;;;;;;5090688;28;20051;-68
2023/06/19 04:41:55;;;;;;;27.42;9.20;;;21.70;91.00;;;;;;5090868;28;20039;-68
2023/06/19 04:44:59;;;;;;;23.23;9.02;;;22.00;90.60;;;;;;5090746;28;20047;-68
2023/06/19 04:48:03;;;;;;;14.38;7.93;;;22.10;90.20;;;;;;5090397;28;20043;-69
2023/06/19 04:51:07;;;;;;;13.27;8.50;;;22.20;90.00;;;;;;5090730;28;20106;-68
2023/06/19 04:54:11;;;;;;;17.75;8.65;;;22.40;89.00;;;;;;5090414;28;20063;-69
2023/06/19 04:57:15;;;;;;;22.10;9.13;;;22.50;88.90;;;;;;5090584;28;20202;-69
2023/06/19 05:00:19;;;;;;;12.13;8.80;;;22.60;87.50;;;;;;5093001;28;20051;-68
2023/06/19 05:03:24;;;;;;;18.58;8.90;;;22.70;87.60;;;;;;5093801;28;20039;-69
2023/06/19 05:06:28;;;;;;;13.75;8.43;;;22.60;87.90;;;;;;5093724;28;20313;-68
2023/06/19 05:09:31;;;;;;;16.95;8.82;;;22.70;88.30;;;;;;5094421;28;20051;-69
2023/06/19 05:12:35;;;;;;;15.55;7.82;;;22.70;88.80;;;;;;5094457;28;20463;-69
2023/06/19 05:15:39;;;;;;;12.27;7.97;;;22.80;86.50;;;;;;5094573;28;20387;-68
2023/06/19 05:18:43;;;;;;;17.35;8.27;;;22.80;86.50;;;;;;5094268;28;20047;-68
2023/06/19 05:21:47;;;;;;;16.98;8.00;;;23.00;85.60;;;;;;5093736;28;20051;-68
2023/06/19 05:24:51;;;;;;;44.45;11.20;;;23.20;85.30;;;;;;5094241;28;20620;-67
2023/06/19 05:27:56;;;;;;;31.13;8.93;;;23.50;85.10;;;;;;5094362;28;20118;-67
2023/06/19 05:31:00;;;;;;;26.70;9.32;;;23.70;84.40;;;;;;5094097;28;20047;-68
2023/06/19 05:34:04;;;;;;;19.42;11.93;;;24.00;84.00;;;;;;5094108;28;20043;-67
2023/06/19 05:37:08;;;;;;;13.88;10.52;;;24.10;83.30;;;;;;5094043;28;20047;-67
2023/06/19 05:40:12;;;;;;;14.73;9.50;;;24.20;84.70;;;;;;5093894;28;20051;-68
2023/06/19 05:43:16;;;;;;;19.80;8.25;;;24.30;84.70;;;;;;5093873;28;20399;-68
2023/06/19 05:46:20;;;;;;;15.98;8.23;;;24.60;83.40;;;;;;5093252;28;20043;-68
2023/06/19 05:49:24;;;;;;;21.15;7.85;;;24.90;83.10;;;;;;5093870;28;20051;-67
2023/06/19 05:52:28;;;;;;;38.47;8.27;;;25.20;82.90;;;;;;5093667;28;20047;-68
2023/06/19 05:55:32;;;;;;;23.05;8.63;;;25.30;81.90;;;;;;5093557;28;20387;-68
2023/06/19 05:58:35;;;;;;;14.10;7.22;;;25.30;81.10;;;;;;5093608;28;20043;-67
2023/06/19 06:01:40;;;;;;;14.23;7.13;;;25.20;81.60;;;;;;5093550;28;20511;-67
2023/06/19 06:04:44;;;;;;;12.45;7.65;;;25.30;81.00;;;;;;5093727;28;20395;-67
2023/06/19 06:07:48;;;;;;;13.75;7.28;;;25.30;81.00;;;;;;5093490;28;20046;-68
2023/06/19 06:10:52;;;;;;;12.02;7.05;;;25.40;80.90;;;;;;5092231;28;20054;-68
2023/06/19 06:13:56;;;;;;;9.15;6.25;;;25.60;81.20;;;;;;5093573;28;20054;-68
2023/06/19 06:17:00;;;;;;;11.18;7.80;;;25.80;80.60;;;;;;5093521;28;20380;-67
2023/06/19 06:20:09;;;;;;;19.10;8.32;;;26.10;80.30;;;;;;5092753;28;20050;-70
2023/06/19 06:23:14;;;;;;;15.50;7.40;;;26.40;80.20;;;;;;5093429;28;20047;-68
2023/06/19 06:26:18;;;;;;;24.73;8.27;;;26.60;78.80;;;;;;5093065;28;20511;-69
2023/06/19 06:29:22;;;;;;;14.18;6.72;;;26.90;78.70;;;;;;5092223;28;20047;-69
2023/06/19 06:32:28;;;;;;;13.68;7.57;;;27.20;77.00;;;;;;5092840;28;20043;-73
2023/06/19 06:35:32;;;;;;;11.80;6.85;;;27.50;77.80;;;;;;5092893;28;20047;-71
2023/06/19 06:38:36;;;;;;;11.77;7.15;;;27.80;76.90;;;;;;5092781;28;20047;-70
2023/06/19 06:41:40;;;;;;;16.35;7.55;;;28.00;76.90;;;;;;5092924;28;20059;-70
2023/06/19 06:44:49;;;;;;;14.45;7.78;;;28.10;75.90;;;;;;5092504;28;20039;-71
2023/06/19 06:47:53;;;;;;;15.38;6.90;;;28.10;75.70;;;;;;5093323;28;20051;-69
2023/06/19 06:51:01;;;;;;;15.18;6.65;;;28.30;75.30;;;;;;5091913;28;20047;-69
2023/06/19 06:54:05;;;;;;;12.68;6.43;;;28.60;75.30;;;;;;5092305;28;20047;-71
2023/06/19 06:57:08;;;;;;;14.40;7.50;;;28.90;75.60;;;;;;5092001;28;20047;-68
2023/06/19 07:00:13;;;;;;;15.02;7.75;;;29.20;75.20;;;;;;5092379;28;20099;-70
2023/06/19 07:03:18;;;;;;;9.43;6.80;;;29.40;73.60;;;;;;5092659;28;20047;-71
2023/06/19 07:06:22;;;;;;;13.27;6.88;;;29.50;73.60;;;;;;5092090;28;20379;-70
2023/06/19 07:09:26;;;;;;;10.48;6.22;;;29.70;73.00;;;;;;5092080;28;20047;-70
2023/06/19 07:12:30;;;;;;;16.08;7.22;;;29.80;72.30;;;;;;5091550;28;20470;-70
2023/06/19 07:15:34;;;;;;;13.35;6.45;;;29.80;71.40;;;;;;5092332;28;20043;-69
2023/06/19 07:18:38;;;;;;;13.43;6.88;;;30.00;71.90;;;;;;5092598;28;20062;-69
2023/06/19 07:21:44;;;;;;;18.65;5.90;;;30.20;70.60;;;;;;5092057;28;20039;-71
2023/06/19 07:24:48;;;;;;;9.10;5.40;;;30.30;68.90;;;;;;5091792;28;20059;-71
2023/06/19 07:27:52;;;;;;;13.52;6.07;;;30.50;68.40;;;;;;5091618;28;20047;-71
2023/06/19 07:30:56;;;;;;;13.93;5.63;;;30.60;67.80;;;;;;5091672;28;20047;-72
2023/06/19 07:34:00;;;;;;;31.92;7.68;;;30.80;68.50;;;;;;5091899;28;20043;-71
2023/06/19 07:37:04;;;;;;;10.43;6.00;;;31.00;68.90;;;;;;5091764;28;20047;-71
2023/06/19 07:40:09;;;;;;;12.77;5.80;;;31.10;67.70;;;;;;5091709;28;20332;-70
2023/06/19 07:43:13;;;;;;;13.57;6.40;;;31.10;67.90;;;;;;5091858;28;20043;-69
2023/06/19 07:46:17;;;;;;;15.27;6.43;;;31.10;68.70;;;;;;5091461;28;20051;-71
2023/06/19 07:49:21;;;;;;;10.88;5.97;;;31.30;68.70;;;;;;5091434;28;20070;-71
2023/06/19 07:52:25;;;;;;;12.80;5.93;;;31.50;68.90;;;;;;5091708;28;20365;-69
2023/06/19 07:55:29;;;;;;;19.02;6.93;;;31.80;68.10;;;;;;5091326;28;20035;-71
2023/06/19 07:58:33;;;;;;;14.35;6.53;;;31.90;69.00;;;;;;5090554;28;20039;-71
2023/06/19 08:01:38;;;;;;;12.98;7.10;;;32.10;69.00;;;;;;5092062;28;20063;-70
2023/06/19 08:04:42;;;;;;;15.73;8.00;;;32.10;67.90;;;;;;5091175;28;20042;-70
2023/06/19 08:07:46;;;;;;;14.20;7.43;;;32.10;69.30;;;;;;5091512;28;20399;-68
2023/06/19 08:10:50;;;;;;;15.20;7.30;;;32.20;69.50;;;;;;5091861;28;20494;-73
2023/06/19 08:13:54;;;;;;;18.23;7.25;;;32.20;68.70;;;;;;5091145;28;20296;-69
2023/06/19 08:16:58;;;;;;;12.48;6.90;;;32.40;69.20;;;;;;5091344;28;20067;-71
2023/06/19 08:20:06;;;;;;;14.57;7.55;;;32.50;68.90;;;;;;5090994;28;20046;-72
2023/06/19 08:23:09;;;;;;;15.57;6.47;;;32.50;68.80;;;;;;5091368;28;20047;-72
2023/06/19 08:26:13;;;;;;;10.20;6.60;;;32.50;68.10;;;;;;5090969;28;20047;-71
2023/06/19 08:29:18;;;;;;;10.73;5.88;;;32.50;68.50;;;;;;5091450;28;20047;-71
2023/06/19 08:32:22;;;;;;;36.17;8.18;;;32.50;68.20;;;;;;5090813;28;20055;-69
2023/06/19 08:35:26;;;;;;;20.02;6.45;;;32.50;69.10;;;;;;5090757;28;20305;-70
2023/06/19 08:38:30;;;;;;;8.60;7.10;;;32.60;69.30;;;;;;5090295;28;20047;-71
2023/06/19 08:41:38;;;;;;;10.82;6.68;;;32.50;68.70;;;;;;5091187;28;20411;-70
2023/06/19 08:44:42;;;;;;;16.48;6.85;;;32.50;69.70;;;;;;5090669;28;20043;-70
2023/06/19 08:47:48;;;;;;;9.40;6.10;;;32.50;70.10;;;;;;5090732;28;20047;-68
2023/06/19 08:50:52;;;;;;;14.00;6.55;;;32.70;70.30;;;;;;5090096;28;20498;-69
2023/06/19 08:54:00;;;;;;;10.25;6.85;;;32.70;70.00;;;;;;5090881;28;20047;-70
2023/06/19 08:57:04;;;;;;;13.60;7.03;;;32.70;69.80;;;;;;5089763;28;20063;-70
2023/06/19 09:00:12;;;;;;;8.23;6.28;;;32.60;70.20;;;;;;5090375;28;20055;-71
2023/06/19 09:03:23;;;;;;;10.35;6.40;;;32.60;70.70;;;;;;5089416;28;20396;-70
2023/06/19 09:06:27;;;;;;;;;;;32.70;70.20;;;;;;5090787;28;20210;-68
2023/06/19 09:09:32;;;;;;;12.10;6.30;;;32.70;70.80;;;;;;5090252;28;19935;-69
2023/06/19 09:12:37;;;;;;;11.68;6.55;;;32.50;68.90;;;;;;5090708;28;20111;-69
2023/06/19 09:15:41;;;;;;;13.88;6.88;;;32.50;69.90;;;;;;5090827;28;20035;-69
2023/06/19 09:18:47;;;;;;;11.63;6.47;;;32.50;69.40;;;;;;5090281;28;20043;-68
2023/06/19 09:22:00;;;;;;;9.68;5.50;;;32.50;69.40;;;;;;5090471;28;20055;-70
2023/06/19 09:25:04;;;;;;;13.45;6.15;;;32.50;69.50;;;;;;5090297;28;20039;-69
2023/06/19 09:28:23;;;;;;;10.55;6.10;;;32.50;69.80;;;;;;5089714;28;20051;-71
2023/06/19 09:31:34;;;;;;;13.30;6.65;;;32.50;68.20;;;;;;5090687;28;20499;-71
2023/06/19 09:34:38;;;;;;;;;;;32.30;68.10;;;;;;5090931;28;20051;-67
2023/06/19 09:37:41;;;;;;;9.15;5.72;;;32.20;69.20;;;;;;5090378;28;20383;-70
2023/06/19 09:40:47;;;;;;;10.00;6.35;;;32.20;69.20;;;;;;5089907;28;20055;-70
2023/06/19 09:43:57;;;;;;;11.82;6.90;;;32.10;69.40;;;;;;5089191;28;20043;-70
2023/06/19 09:47:09;;;;;;;10.32;6.38;;;32.20;70.10;;;;;;5092373;28;20047;-69
2023/06/19 09:50:14;;;;;;;11.77;6.70;;;32.20;69.40;;;;;;5093588;28;20079;-69
2023/06/19 09:53:19;;;;;;;11.95;6.88;;;32.30;69.50;;;;;;5093627;28;20051;-70
2023/06/19 09:56:25;;;;;;;11.20;6.40;;;32.30;68.30;;;;;;5093433;28;20043;-68
2023/06/19 09:59:29;;;;;;;11.30;6.40;;;32.10;68.00;;;;;;5093459;28;20055;-69
2023/06/19 10:02:34;;;;;;;11.18;7.03;;;31.90;68.50;;;;;;5093387;28;20035;-69
2023/06/19 10:05:38;;;;;;;8.82;5.63;;;31.60;68.40;;;;;;5093281;28;20066;-69
2023/06/19 10:08:44;;;;;;;11.20;6.10;;;31.60;68.60;;;;;;5092931;28;20408;-69
2023/06/19 10:11:52;;;;;;;12.07;6.20;;;31.50;68.70;;;;;;5093565;28;20507;-69
2023/06/19 10:14:56;;;;;;;9.68;6.13;;;31.50;70.20;;;;;;5093062;28;20536;-69
2023/06/19 10:18:03;;;;;;;7.45;5.90;;;31.60;70.30;;;;;;5093011;28;20043;-69
2023/06/19 10:21:18;;;;;;;9.45;6.25;;;31.80;69.60;;;;;;5092751;28;20055;-68
2023/06/19 10:24:24;;;;;;;12.13;6.50;;;31.90;71.40;;;;;;5092935;28;20039;-69
2023/06/19 10:27:33;;;;;;;12.63;6.47;;;31.90;71.70;;;;;;5093420;28;20047;-69
2023/06/19 10:30:38;;;;;;;15.25;6.07;;;32.00;72.40;;;;;;5092680;28;20036;-69
2023/06/19 10:33:41;;;;;;;18.98;7.47;;;32.00;71.90;;;;;;5092830;28;20062;-68
2023/06/19 10:36:45;;;;;;;9.63;5.97;;;32.00;72.90;;;;;;5093079;28;20047;-68
2023/06/19 10:39:49;;;;;;;11.35;6.05;;;32.10;73.10;;;;;;5092952;28;20043;-68
2023/06/19 10:42:53;;;;;;;9.20;6.45;;;32.10;72.70;;;;;;5092612;28;20051;-69
2023/06/19 10:45:58;;;;;;;11.73;6.05;;;32.10;72.70;;;;;;5092903;28;20498;-69
2023/06/19 10:49:04;;;;;;;13.68;6.38;;;32.10;74.40;;;;;;5091608;28;20043;-69
2023/06/19 10:52:08;;;;;;;11.10;6.15;;;32.10;73.20;;;;;;5092556;28;20046;-70
2023/06/19 10:55:12;;;;;;;9.02;5.45;;;32.10;73.50;;;;;;5092523;28;20047;-69
2023/06/19 10:58:18;;;;;;;9.68;5.80;;;32.10;73.60;;;;;;5092094;28;20047;-70
2023/06/19 11:01:22;;;;;;;8.90;5.68;;;32.10;73.30;;;;;;5092268;28;20506;-70
2023/06/19 11:04:26;;;;;;;9.90;6.57;;;32.00;71.90;;;;;;5092103;28;20054;-69
2023/06/19 11:07:32;;;;;;;9.10;5.50;;;31.90;72.50;;;;;;5092086;28;20043;-69
2023/06/19 11:10:36;;;;;;;7.20;5.15;;;31.90;72.30;;;;;;5092306;28;20079;-69
2023/06/19 11:13:43;;;;;;;13.05;6.82;;;31.80;72.10;;;;;;5092274;28;20293;-69
2023/06/19 11:16:47;;;;;;;10.45;6.10;;;31.70;72.90;;;;;;5092252;28;20047;-69
2023/06/19 11:19:51;;;;;;;8.25;5.50;;;31.50;73.90;;;;;;5091971;28;20063;-70
2023/06/19 11:23:00;;;;;;;8.57;5.55;;;31.50;74.50;;;;;;5091994;28;20051;-69
2023/06/19 11:26:05;;;;;;;7.50;4.88;;;31.50;74.50;;;;;;5092009;28;20047;-69
2023/06/19 11:29:18;;;;;;;8.18;5.20;;;31.50;73.90;;;;;;5091657;28;20495;-69
2023/06/19 11:32:24;;;;;;;11.70;5.53;;;31.50;73.70;;;;;;5092034;28;20451;-69
2023/06/19 11:35:36;;;;;;;9.63;5.40;;;31.50;74.00;;;;;;5092156;28;20043;-69
2023/06/19 11:38:41;;;;;;;7.85;4.93;;;31.40;74.70;;;;;;5091136;28;20051;-69
2023/06/19 11:41:45;;;;;;;8.88;4.78;;;31.40;74.40;;;;;;5091037;28;20066;-69
2023/06/19 11:44:54;;;;;;;9.57;5.10;;;31.40;73.00;;;;;;5091827;28;20507;-69
2023/06/19 11:47:58;;;;;;;7.88;5.00;;;31.40;73.30;;;;;;5091832;28;20039;-69
2023/06/19 11:51:03;;;;;;;8.18;4.80;;;31.40;73.20;;;;;;5090800;28;20106;-68
2023/06/19 11:54:08;;;;;;;8.75;5.15;;;31.40;73.30;;;;;;5090598;28;20051;-68
2023/06/19 11:57:13;;;;;;;6.32;4.18;;;31.30;73.80;;;;;;5091599;28;20420;-68
2023/06/19 12:00:17;;;;;;;10.77;5.28;;;31.30;74.40;;;;;;5091196;28;20051;-69
2023/06/19 12:03:21;;;;;;;15.07;5.43;;;31.30;74.40;;;;;;5091651;28;20043;-69
2023/06/19 12:06:25;;;;;;;6.55;4.82;;;31.20;74.00;;;;;;5091234;28;20071;-71
2023/06/19 12:09:31;;;;;;;11.05;5.05;;;31.10;74.20;;;;;;5090656;28;20055;-71
2023/06/19 12:12:37;;;;;;;9.57;5.50;;;31.10;74.70;;;;;;5091304;28;20428;-70
2023/06/19 12:15:41;;;;;;;10.30;5.53;;;31.10;74.90;;;;;;5091530;28;20051;-72
2023/06/19 12:18:45;;;;;;;8.07;5.55;;;31.10;74.70;;;;;;5090963;28;20043;-71
2023/06/19 12:21:49;;;;;;;9.18;5.10;;;31.10;74.20;;;;;;5091189;28;20047;-71
2023/06/19 12:24:53;;;;;;;7.35;5.07;;;31.10;74.20;;;;;;5090788;28;20043;-72
2023/06/19 12:27:57;;;;;;;9.63;5.25;;;31.10;73.70;;;;;;5091182;28;20047;-71
2023/06/19 12:31:02;;;;;;;6.53;4.70;;;31.10;74.20;;;;;;5090351;28;20114;-70
2023/06/19 12:34:06;;;;;;;9.27;5.68;;;31.10;74.40;;;;;;5089796;28;20055;-71
2023/06/19 12:37:10;;;;;;;13.27;5.68;;;31.10;74.10;;;;;;5090292;28;20427;-71
2023/06/19 12:40:14;;;;;;;14.32;5.88;;;31.10;73.40;;;;;;5090212;28;20403;-72
2023/06/19 12:43:18;;;;;;;7.20;5.03;;;31.00;73.90;;;;;;5090787;28;20043;-71
2023/06/19 12:46:22;;;;;;;6.55;4.95;;;31.00;74.20;;;;;;5088643;28;20047;-70
2023/06/19 12:49:26;;;;;;;9.95;6.53;;;30.90;73.30;;;;;;5090906;28;20562;-72
2023/06/19 12:52:30;;;;;;;10.48;5.60;;;30.90;71.70;;;;;;5090734;28;20043;-71
2023/06/19 12:55:35;;;;;;;10.70;5.65;;;30.90;71.70;;;;;;5076771;28;20412;-71
2023/06/19 12:58:39;;;;;;;7.70;4.88;;;30.90;70.90;;;;;;5090623;28;20423;-72
2023/06/19 13:01:43;;;;;;;6.88;5.05;;;30.90;71.20;;;;;;5090636;28;20051;-73
2023/06/19 13:04:47;;;;;;;13.70;6.05;;;30.80;70.70;;;;;;5090729;28;20046;-72
2023/06/19 13:07:51;;;;;;;18.00;5.25;;;30.70;71.00;;;;;;5090739;28;20043;-71
2023/06/19 13:10:55;;;;;;;6.30;4.68;;;30.60;71.50;;;;;;5090594;28;20047;-72
2023/06/19 13:13:59;;;;;;;9.25;5.07;;;30.50;71.20;;;;;;5089785;28;20051;-72
2023/06/19 13:17:03;;;;;;;9.95;5.25;;;30.40;72.00;;;;;;5090728;28;20401;-71
2023/06/19 13:20:07;;;;;;;10.18;4.80;;;30.40;70.70;;;;;;5091750;28;20399;-70
2023/06/19 13:23:11;;;;;;;9.38;6.03;;;30.40;70.50;;;;;;5094418;28;20301;-73
2023/06/19 13:26:15;;;;;;;9.52;4.88;;;30.30;70.90;;;;;;5094662;28;20043;-72
2023/06/19 13:29:20;;;;;;;8.98;4.75;;;30.30;72.10;;;;;;5094229;28;20217;-73
2023/06/19 13:32:24;;;;;;;9.27;4.95;;;30.30;72.10;;;;;;5094430;28;20384;-72
2023/06/19 13:35:30;;;;;;;8.20;5.22;;;30.30;72.00;;;;;;5094267;28;20047;-74
2023/06/19 13:38:34;;;;;;;11.05;5.10;;;30.40;71.60;;;;;;5092505;28;20047;-74
2023/06/19 13:41:38;;;;;;;8.77;5.15;;;30.40;71.90;;;;;;5093830;28;20071;-72
2023/06/19 13:44:42;;;;;;;10.55;5.82;;;30.30;72.00;;;;;;5094132;28;20062;-68
2023/06/19 13:47:46;;;;;;;9.90;4.38;;;30.40;71.90;;;;;;5094177;28;20043;-70
2023/06/19 13:50:50;;;;;;;9.75;4.85;;;30.40;72.20;;;;;;5093860;28;20047;-69
2023/06/19 13:53:54;;;;;;;12.05;5.30;;;30.40;71.50;;;;;;5092945;28;20404;-71
2023/06/19 13:56:58;;;;;;;10.00;4.88;;;30.40;72.00;;;;;;5093941;28;20148;-74
2023/06/19 14:00:03;;;;;;;10.20;5.10;;;30.40;71.20;;;;;;5093768;28;20542;-72
2023/06/19 14:03:16;;;;;;;11.93;5.93;;;30.30;72.00;;;;;;5093530;28;20055;-72
2023/06/19 14:06:21;;;;;;;7.70;4.43;;;30.30;71.10;;;;;;5093523;28;20073;-71
2023/06/19 14:09:25;;;;;;;6.28;4.57;;;30.30;71.50;;;;;;5092423;28;20047;-71
2023/06/19 14:12:30;;;;;;;8.55;5.10;;;30.30;71.40;;;;;;5093623;28;20071;-72
2023/06/19 14:15:34;;;;;;;16.27;4.82;;;30.30;71.50;;;;;;5092650;28;20047;-72
2023/06/19 14:18:38;;;;;;;8.05;4.78;;;30.30;71.90;;;;;;5093246;28;20051;-74
2023/06/19 14:21:42;;;;;;;9.23;4.15;;;30.30;71.90;;;;;;5092900;28;20063;-72
2023/06/19 14:24:46;;;;;;;6.15;4.45;;;30.20;72.20;;;;;;5091323;28;20043;-71
2023/06/19 14:27:50;;;;;;;12.57;4.80;;;30.20;72.80;;;;;;5091355;28;20047;-73
2023/06/19 14:30:54;;;;;;;8.30;4.80;;;30.20;73.20;;;;;;5078822;28;20039;-71
2023/06/19 14:33:58;;;;;;;7.05;4.97;;;30.10;73.10;;;;;;5092151;28;20074;-70
2023/06/19 14:37:02;;;;;;;7.13;4.40;;;30.10;73.20;;;;;;5091650;28;20403;-72
2023/06/19 14:40:07;;;;;;;6.13;4.55;;;30.10;72.80;;;;;;5092097;28;20047;-71
2023/06/19 14:43:11;;;;;;;9.15;4.55;;;30.00;72.50;;;;;;5090450;28;20047;-71
2023/06/19 14:46:15;;;;;;;8.82;5.10;;;30.00;73.10;;;;;;5091933;28;20039;-71
2023/06/19 14:49:18;;;;;;;9.50;4.82;;;30.00;74.40;;;;;;5080039;28;20507;-72
2023/06/19 14:52:22;;;;;;;11.68;4.80;;;30.00;74.10;;;;;;5092774;28;20055;-72
2023/06/19 14:55:26;;;;;;;7.35;4.75;;;30.00;73.50;;;;;;5092474;28;20047;-72
2023/06/19 14:58:30;;;;;;;6.47;4.63;;;29.90;72.60;;;;;;5092847;28;20047;-72
2023/06/19 15:01:34;;;;;;;10.20;5.30;;;29.90;72.50;;;;;;5092449;28;20435;-71
2023/06/19 15:04:41;;;;;;;8.93;5.03;;;29.90;72.90;;;;;;5092334;28;20388;-73
2023/06/19 15:07:45;;;;;;;7.72;5.38;;;29.90;73.80;;;;;;5092260;28;20051;-74
2023/06/19 15:10:48;;;;;;;10.38;5.07;;;29.80;75.40;;;;;;5092636;28;20055;-70
2023/06/19 15:13:52;;;;;;;9.45;5.10;;;29.90;76.40;;;;;;5092324;28;20039;-72
2023/06/19 15:16:56;;;;;;;8.48;5.30;;;29.90;77.80;;;;;;5092273;28;20043;-72
2023/06/19 15:20:00;;;;;;;12.65;5.88;;;29.80;78.20;;;;;;5092388;28;20511;-71
2023/06/19 15:23:06;;;;;;;10.88;6.20;;;29.90;80.40;;;;;;5092146;28;20039;-71
2023/06/19 15:26:10;;;;;;;13.13;6.65;;;29.80;81.60;;;;;;5092673;28;20047;-75
2023/06/19 15:29:14;;;;;;;11.05;5.57;;;29.80;83.30;;;;;;5092125;28;20400;-72
2023/06/19 15:32:18;;;;;;;12.98;5.82;;;29.80;83.40;;;;;;5092102;28;20047;-72
2023/06/19 15:35:22;;;;;;;11.73;6.82;;;29.70;84.60;;;;;;5091783;28;20499;-73
2023/06/19 15:38:26;;;;;;;10.10;5.18;;;29.70;85.10;;;;;;5077488;28;20039;-74
2023/06/19 15:41:30;;;;;;;9.10;5.32;;;29.60;85.60;;;;;;5076321;28;20055;-73
2023/06/19 15:44:34;;;;;;;9.27;5.85;;;29.60;85.80;;;;;;5089837;28;20042;-73
2023/06/19 15:47:37;;;;;;;9.50;5.40;;;29.60;86.00;;;;;;5088678;28;20047;-74
2023/06/19 15:50:42;;;;;;;9.65;6.93;;;29.60;86.80;;;;;;5090408;28;20051;-73